Hauptseite
METAR-TAF:

METAR-TAF

Flughäfen :

Flughafen Ōshima

Nii Ōshima, Japan

Breite: 34-47N, Länge: 139-22E, Höhe: 38 m

Beobachtung

Neuester Wetterbericht von vor 7 Stunden und 23 Minuten, um 08:00 UTC
Wind 10 kt aus Nordost
Temperatur 17°C
Luftfeuchtigkeit 82%
Luftdruck 1016 hPa
Sichtweite 10 km oder mehr
Leicht bewölkt in der Höhe von 1500 ft
Aufgelockert bewölkt in der Höhe von 3000 ft
Durchbrochene Bewölkung in der Höhe von 5000 ft

METAR: RJTO 230800Z 05010KT 9999 FEW015 SCT030 BKN050 17/14 Q1016

Zeit: 00:23 (15:23 UTC)


TAF: fehlend

Wetterbeobachtungen und Prognosen von mehr als 4000 Flughäfen (METAR und TAF Bericht).

Die verfügbaren Stationen werden durch gelbe und rote Markierungen auf der Karte dargestellt.

Führen Sie die Maus auf sie, um den Namen der Station zu sehen.

Darauf klicken, um die Beobachtung von Wetterbeobachtungen und Prognosen zu sehen.

Um die Karte zu ändern : klicken Sie auf den grünen Tasten mit einem schwarzen Kreuz Zum Vergrößern, auf den grünen Button mit einem Gedankenstrich zu verkleinern, oder auf die grünen Pfeile für benachbarte Karten.


METAR-TAF: